Aeroporto :
LOGIN :

Iscrizione | Disclaimer

   EN    FR    IT 

 










Sommario :    VFR   VFR Marginale   IFR   IFR Intensivo   IFR Molto Intensivo
Visibilità : 
Base nubi : 
>= 8 km
>= 3000ft
5 / 8 km
1000 / 3000 ft
1500m / 5 km
500 / 1000 ft
800 / 1500m
200 / 500 ft
< 800m
< 200 ft
Simboli :   Temporali  Nebbia  Neve Forte  Precipitazioni Forti  Vento > 20 kt
SIGMETs :   Varie  Temporali  Ghiacco  Turbolenza  Onda orograficha  Ceneri Vulcaniche







- Altitudine del aeroporto : 1043 ft
- Codice IATA : SLD


LZSL - Sliac

ULTIMO METAR :
  • 162300Z 05001KT 6000 NSC M02/M03 Q1030

METARs OBSOLETI :
  • 162230Z 00000KT 7000 NSC M02/M04 Q1030
  • 162200Z VRB01KT 8000 NSC M02/M03 Q1030
  • 162130Z 00000KT CAVOK M02/M03 Q1030
  • 162100Z 00000KT CAVOK M01/M03 Q1030
  • 162030Z 00000KT CAVOK M01/M03 Q1030

TAF TAF LZSL
Valido dal 16 a 21 ore il 17 a 06 ore UTC


162000Z 1621/1706 VRB02KT CAVOK
BECMG 1621/1623 2000 BR SCT002 BKN004
TEMPO 1623/1706 0300 FZFG OVC001
Nessun NOTAM noto per questo aeroporto.



MetMap, La meteo Aeronautica in un colpo d'occhio ! - Copyright ORBIFLY Dicembre 2007 - Disclaimer

ORBIFLY MET'MAP TEAM :

Programmazione e sviluppo : Alexandra Zaïnal
Concezione e sviluppo : Baudouin d'Aumeries
Co-Programmazione e sviluppo : Marc-Olivier Méhu
Supporto tecnico e logistico : Manuel Goepfert
Aiuto per la traduzione : Arnaldo La Scala

Contatto : metmap@orbifly.com




FONTI E CREDITI :

   NOAA